Sheboygan Falls, Wisconsin
Current Conditions -  °F | °C
As of 9:53 PM on Tuesday 25 Nov 2014 (Local Time) from KSBM Reporting Station
Overcast Overcast  
Wind Chill: 13°   Ceiling: 1400
Heat Index: 20°   Visibility: 10mi
Dew Point: 15°   Wind: 5mph
Humidity: 81%   Direction: 240°WSW
Pressure: 30.16"   Gusts: NA
Location:  43.73°N, 87.81°W
Report Text: KSBM 260353Z AUTO 24004KT 10SM OVC014 M07/M09 A3016 RMK AO2 SLP225 T10671094
Loading
Personal Weather Stations






























Interactive Weather Map New forecast layout! Learn more

10-Day Weather Forecast

Advertisements
Track Severe Weather on mobile